Time;durP1;ratioP1;P1;durP2;ratioP2;P2;SDS_P1;SDS_P2;PMS_P1;PMS_P2;Temp;Humidity;BMP_temperature;BMP_pressure;BME280_temperature;BME280_humidity;BME280_pressure;Samples;Min_cycle;Max_cycle;Signal;HPM_P1;HPM_P2
2023/08/24 00:01:03;;;;;;;8.57;5.10;;;;;;;17.43;100.00;101725.06;5091561;28;20109;-69
2023/08/24 00:03:28;;;;;;;6.53;3.95;;;;;;;17.42;100.00;101726.09;5090627;28;20514;-69
2023/08/24 00:05:54;;;;;;;12.68;5.13;;;;;;;17.43;100.00;101720.50;5091754;28;20036;-69
2023/08/24 00:08:20;;;;;;;7.55;4.78;;;;;;;17.36;100.00;101711.63;5092007;28;20028;-69
2023/08/24 00:10:46;;;;;;;10.05;5.00;;;;;;;17.24;100.00;101711.53;5091879;28;20445;-69
2023/08/24 00:13:12;;;;;;;9.43;5.70;;;;;;;17.21;100.00;101712.00;5091766;28;20039;-69
2023/08/24 00:15:39;;;;;;;7.85;4.45;;;;;;;17.21;100.00;101712.00;5091685;28;20027;-69
2023/08/24 00:18:05;;;;;;;11.35;5.47;;;;;;;17.25;100.00;101715.06;5091772;28;20055;-69
2023/08/24 00:20:32;;;;;;;10.48;4.70;;;;;;;17.19;100.00;101705.97;5091664;28;20036;-69
2023/08/24 00:22:58;;;;;;;11.45;5.88;;;;;;;17.19;100.00;101711.38;5091533;28;20024;-69
2023/08/24 00:25:23;;;;;;;11.43;5.30;;;;;;;17.22;100.00;101721.72;5091589;28;20486;-69
2023/08/24 00:27:49;;;;;;;9.77;5.63;;;;;;;17.22;100.00;101724.41;5091463;28;20028;-69
2023/08/24 00:30:15;;;;;;;11.60;6.32;;;;;;;17.20;100.00;101723.78;5091613;28;20379;-69
2023/08/24 00:32:40;;;;;;;11.27;6.18;;;;;;;17.21;100.00;101719.22;5091449;28;20067;-69
2023/08/24 00:35:08;;;;;;;12.07;6.68;;;;;;;17.14;100.00;101721.16;5090090;28;20047;-69
2023/08/24 00:37:34;;;;;;;9.95;5.90;;;;;;;16.97;100.00;101716.28;5093991;28;20111;-69
2023/08/24 00:40:03;;;;;;;10.30;5.57;;;;;;;16.90;100.00;101695.81;5093383;28;20024;-69
2023/08/24 00:42:28;;;;;;;9.07;4.78;;;;;;;16.89;100.00;101707.66;5090786;28;20056;-70
2023/08/24 00:44:53;;;;;;;10.07;5.07;;;;;;;16.95;100.00;101710.31;5091094;28;20078;-69
2023/08/24 00:47:19;;;;;;;8.95;5.07;;;;;;;16.97;100.00;101708.19;5091228;28;20489;-69
2023/08/24 00:49:45;;;;;;;11.05;4.93;;;;;;;16.92;100.00;101716.09;5091119;28;20530;-69
2023/08/24 00:52:11;;;;;;;9.32;5.50;;;;;;;16.93;100.00;101717.78;5091031;28;20052;-69
2023/08/24 00:54:39;;;;;;;10.13;5.88;;;;;;;16.92;100.00;101713.41;5090885;28;20876;-69
2023/08/24 00:57:05;;;;;;;8.45;5.00;;;;;;;16.87;100.00;101705.16;5091061;28;20055;-69
2023/08/24 00:59:31;;;;;;;9.10;5.57;;;;;;;16.78;100.00;101701.09;5090733;28;20048;-69
2023/08/24 01:01:59;;;;;;;11.55;7.13;;;;;;;16.74;100.00;101686.34;5090886;28;20056;-69
2023/08/24 01:04:24;;;;;;;9.23;5.95;;;;;;;16.68;100.00;101700.69;5090641;28;20426;-69
2023/08/24 01:06:50;;;;;;;10.32;5.65;;;;;;;16.62;100.00;101695.13;5090751;28;20028;-69
2023/08/24 01:09:16;;;;;;;7.72;4.97;;;;;;;16.60;100.00;101689.13;5089513;28;20085;-69
2023/08/24 01:11:56;;;;;;;11.77;6.15;;;;;;;16.54;100.00;101697.28;5090807;28;20031;-69
2023/08/24 01:14:45;;;;;;;15.07;6.20;;;;;;;16.56;100.00;101705.97;5090712;28;20070;-69
2023/08/24 01:17:16;;;;;;;9.25;5.25;;;;;;;16.56;100.00;101695.19;5090514;28;20027;-69
2023/08/24 01:19:43;;;;;;;9.20;5.10;;;;;;;16.58;100.00;101693.94;5090594;28;20028;-69
2023/08/24 01:22:47;;;;;;;9.02;5.50;;;;;;;16.70;100.00;101690.53;5090518;28;20038;-69
2023/08/24 01:25:16;;;;;;;10.43;5.55;;;;;;;16.63;100.00;101686.00;5059401;28;20404;-69
2023/08/24 01:27:42;;;;;;;11.60;5.75;;;;;;;16.63;100.00;101699.47;5070831;28;20074;-69
2023/08/24 01:30:09;;;;;;;12.68;5.78;;;;;;;16.59;100.00;101689.38;5070872;28;20043;-69
2023/08/24 01:32:35;;;;;;;10.82;5.00;;;;;;;16.63;100.00;101693.25;5071064;28;20040;-69
2023/08/24 01:35:04;;;;;;;8.38;4.68;;;;;;;16.62;100.00;101684.38;5070856;28;20033;-69
2023/08/24 01:37:29;;;;;;;12.10;6.38;;;;;;;16.55;100.00;101670.09;5089948;28;20436;-69
2023/08/24 01:40:04;;;;;;;13.00;6.60;;;;;;;16.61;100.00;101663.03;5090416;28;20034;-69
2023/08/24 01:42:31;;;;;;;12.65;6.95;;;;;;;16.62;100.00;101662.00;5090004;28;20028;-69
2023/08/24 01:44:59;;;;;;;12.50;6.15;;;;;;;16.66;100.00;101676.66;5089914;28;20085;-69
2023/08/24 01:47:27;;;;;;;10.80;6.10;;;;;;;16.71;100.00;101681.41;5090060;28;20070;-69
2023/08/24 01:49:53;;;;;;;11.90;7.68;;;;;;;16.71;100.00;101681.41;5090153;28;20459;-69
2023/08/24 01:52:19;;;;;;;12.95;7.47;;;;;;;16.75;100.00;101686.16;5088780;28;20054;-69
2023/08/24 01:54:44;;;;;;;12.43;6.45;;;;;;;16.80;100.00;101689.06;5089772;28;20028;-69
2023/08/24 01:57:10;;;;;;;10.98;6.65;;;;;;;16.82;100.00;101675.34;5089726;28;20464;-69
2023/08/24 01:59:35;;;;;;;13.98;6.53;;;;;;;16.81;100.00;101681.78;5088508;28;20057;-69
2023/08/24 02:02:01;;;;;;;16.10;6.70;;;;;;;16.80;100.00;101683.66;5089984;28;20048;-69
2023/08/24 02:04:26;;;;;;;14.38;6.93;;;;;;;16.79;100.00;101681.19;5089583;28;20123;-69
2023/08/24 02:06:52;;;;;;;11.95;6.55;;;;;;;16.82;100.00;101688.81;5089653;28;20115;-69
2023/08/24 02:09:17;;;;;;;11.93;5.72;;;;;;;16.89;100.00;101688.78;5089310;28;20032;-69
2023/08/24 02:11:42;;;;;;;14.07;7.13;;;;;;;16.95;100.00;101704.06;5089495;28;20395;-69
2023/08/24 02:14:08;;;;;;;13.13;5.72;;;;;;;16.97;100.00;101699.28;5089485;28;20371;-69
2023/08/24 02:16:33;;;;;;;13.20;7.70;;;;;;;16.97;100.00;101697.41;5089440;28;20032;-69
2023/08/24 02:18:58;;;;;;;14.93;6.50;;;;;;;16.92;100.00;101670.31;5089459;28;20020;-69
2023/08/24 02:21:24;;;;;;;10.60;6.75;;;;;;;16.98;100.00;101679.41;5089637;28;20036;-69
2023/08/24 02:23:49;;;;;;;11.10;7.60;;;;;;;16.95;100.00;101667.19;5089308;28;20387;-69
2023/08/24 02:26:14;;;;;;;13.45;6.95;;;;;;;16.98;100.00;101666.75;5087996;28;20036;-69
2023/08/24 02:28:40;;;;;;;9.85;6.25;;;;;;;17.02;100.00;101672.53;5089235;28;20104;-70
2023/08/24 02:31:05;;;;;;;16.08;8.38;;;;;;;17.06;100.00;101684.53;5089124;28;20126;-69
2023/08/24 02:33:32;;;;;;;12.25;6.30;;;;;;;17.06;100.00;101674.56;5087949;28;20031;-69
2023/08/24 02:35:57;;;;;;;11.82;7.53;;;;;;;17.04;100.00;101676.66;5089311;28;20024;-69
2023/08/24 02:38:23;;;;;;;11.48;7.18;;;;;;;17.01;100.00;101669.00;5089199;28;20039;-69
2023/08/24 02:40:49;;;;;;;12.57;7.35;;;;;;;17.00;100.00;101670.06;5087712;28;20399;-69
2023/08/24 02:43:14;;;;;;;13.52;7.57;;;;;;;17.01;100.00;101677.09;5089003;28;20031;-69
2023/08/24 02:45:40;;;;;;;11.60;6.90;;;;;;;17.01;100.00;101671.69;5089089;28;20028;-69
2023/08/24 02:48:05;;;;;;;11.52;6.15;;;;;;;17.01;100.00;101657.41;5089030;28;20089;-69
2023/08/24 02:50:31;;;;;;;12.82;7.40;;;;;;;17.02;100.00;101650.97;5088949;28;20463;-69
2023/08/24 02:52:58;;;;;;;11.80;6.35;;;;;;;17.01;100.00;101633.16;5087667;28;20089;-69
2023/08/24 02:55:24;;;;;;;13.27;6.90;;;;;;;17.02;100.00;101627.53;5087659;28;20047;-69
2023/08/24 02:57:49;;;;;;;16.48;8.68;;;;;;;17.08;100.00;101631.19;5089036;28;20036;-69
2023/08/24 03:00:14;;;;;;;11.10;6.90;;;;;;;17.07;100.00;101627.69;5088628;28;20056;-69
2023/08/24 03:02:40;;;;;;;14.60;7.47;;;;;;;17.06;100.00;101620.66;5088805;28;20035;-69
2023/08/24 03:05:06;;;;;;;11.48;6.30;;;;;;;17.07;100.00;101613.38;5092052;28;20024;-69
2023/08/24 03:07:32;;;;;;;16.70;7.63;;;;;;;17.04;100.00;101598.47;5093137;28;20105;-69
2023/08/24 03:09:57;;;;;;;15.73;7.50;;;;;;;17.10;100.00;101591.38;5093145;28;20035;-69
2023/08/24 03:12:22;;;;;;;12.68;7.55;;;;;;;17.09;100.00;101577.09;5093156;28;20357;-69
2023/08/24 03:14:51;;;;;;;17.77;7.85;;;;;;;17.08;100.00;101570.06;5093747;28;20028;-69
2023/08/24 03:17:17;;;;;;;15.45;8.27;;;;;;;17.05;100.00;101548.91;5093344;28;20434;-70
2023/08/24 03:19:42;;;;;;;15.30;7.88;;;;;;;17.08;100.00;101528.78;5092732;28;20020;-69
2023/08/24 03:22:07;;;;;;;14.18;8.40;;;;;;;17.08;100.00;101518.00;5092827;28;20032;-69
2023/08/24 03:24:33;;;;;;;14.77;7.72;;;;;;;17.07;100.00;101519.88;5092614;28;20131;-69
2023/08/24 03:26:58;;;;;;;15.32;8.35;;;;;;;17.11;100.00;101514.88;5092691;28;20038;-69
2023/08/24 03:29:23;;;;;;;19.02;10.52;;;;;;;17.14;100.00;101514.44;5092827;28;20032;-70
2023/08/24 03:31:49;;;;;;;15.77;9.73;;;;;;;17.11;100.00;101516.72;5091248;28;20032;-69
2023/08/24 03:34:14;;;;;;;17.20;9.77;;;;;;;17.13;100.00;101515.47;5092372;28;20402;-69
2023/08/24 03:36:39;;;;;;;18.08;10.82;;;;;;;17.15;100.00;101504.47;5092378;28;20078;-70
2023/08/24 03:39:05;;;;;;;18.02;10.25;;;;;;;17.16;100.00;101493.47;5091157;28;20036;-69
2023/08/24 03:41:30;;;;;;;17.17;9.68;;;;;;;17.17;100.00;101500.50;5091024;28;20042;-69
2023/08/24 03:43:55;;;;;;;17.08;10.23;;;;;;;17.16;100.00;101498.88;5092284;28;20167;-69
2023/08/24 03:46:21;;;;;;;23.85;11.40;;;;;;;17.17;100.00;101499.69;5092385;28;20071;-69
2023/08/24 03:48:46;;;;;;;18.95;11.45;;;;;;;17.22;100.00;101495.25;5092326;28;20035;-69
2023/08/24 03:51:12;;;;;;;20.88;11.88;;;;;;;17.24;100.00;101490.47;5092061;28;20394;-69
2023/08/24 03:53:38;;;;;;;27.65;13.48;;;;;;;17.27;100.00;101494.59;5092205;28;20050;-69
2023/08/24 03:56:03;;;;;;;21.85;12.70;;;;;;;17.27;100.00;101503.50;5080805;28;20364;-69
2023/08/24 03:58:29;;;;;;;20.48;11.38;;;;;;;17.25;100.00;101499.38;5072710;28;20110;-69
2023/08/24 04:00:55;;;;;;;19.80;12.65;;;;;;;17.23;100.00;101506.84;5072053;28;20140;-69
2023/08/24 04:03:20;;;;;;;19.65;11.25;;;;;;;17.19;100.00;101514.59;5091970;28;20043;-69
2023/08/24 04:05:46;;;;;;;19.92;12.63;;;;;;;17.15;100.00;101510.66;5091819;28;20044;-69
2023/08/24 04:08:11;;;;;;;29.25;14.30;;;;;;;17.14;100.00;101509.03;5091973;28;20028;-69
2023/08/24 04:10:37;;;;;;;21.55;12.60;;;;;;;17.09;100.00;101514.28;5091737;28;20032;-69
2023/08/24 04:13:03;;;;;;;19.88;13.18;;;;;;;17.04;100.00;101508.72;5091751;28;20032;-69
2023/08/24 04:15:28;;;;;;;20.63;11.90;;;;;;;17.02;100.00;101525.09;5090509;28;20433;-69
2023/08/24 04:17:54;;;;;;;20.65;12.57;;;;;;;16.99;100.00;101525.56;5091740;28;20102;-69
2023/08/24 04:20:19;;;;;;;20.73;11.88;;;;;;;16.99;100.00;101517.47;5091692;28;20467;-69
2023/08/24 04:22:44;;;;;;;19.30;13.00;;;;;;;16.99;100.00;101513.97;5091822;28;20515;-69
2023/08/24 04:25:10;;;;;;;20.00;12.23;;;;;;;16.97;100.00;101516.03;5090109;28;20036;-69
2023/08/24 04:27:36;;;;;;;24.63;13.88;;;;;;;16.96;100.00;101509.84;5091597;28;20066;-69
2023/08/24 04:30:03;;;;;;;23.20;11.93;;;;;;;16.95;100.00;101510.91;5090157;28;20036;-69
2023/08/24 04:32:28;;;;;;;26.25;12.63;;;;;;;16.95;100.00;101515.44;5091620;28;20024;-69
2023/08/24 04:34:53;;;;;;;20.98;12.75;;;;;;;16.96;100.00;101520.63;5091515;28;21029;-69
2023/08/24 04:37:19;;;;;;;21.80;12.93;;;;;;;16.97;100.00;101516.03;5091312;28;20379;-69
2023/08/24 04:39:44;;;;;;;21.08;12.32;;;;;;;16.96;100.00;101517.09;5091299;28;20051;-69
2023/08/24 04:42:10;;;;;;;25.30;13.73;;;;;;;16.96;100.00;101512.53;5091115;28;20039;-69
2023/08/24 04:44:35;;;;;;;21.10;13.02;;;;;;;16.96;100.00;101506.31;5091124;28;20475;-69
2023/08/24 04:47:01;;;;;;;18.92;12.70;;;;;;;17.00;100.00;101511.06;5090929;28;20061;-69
2023/08/24 04:49:26;;;;;;;22.30;12.48;;;;;;;16.99;100.00;101506.69;5090213;28;20488;-69
2023/08/24 04:51:51;;;;;;;21.10;13.07;;;;;;;17.03;100.00;101507.09;5089700;28;20094;-69
2023/08/24 04:54:17;;;;;;;21.38;11.85;;;;;;;17.03;100.00;101505.22;5089846;28;20051;-69
2023/08/24 04:56:42;;;;;;;23.38;13.32;;;;;;;17.06;100.00;101507.47;5089765;28;20025;-69
2023/08/24 04:59:08;;;;;;;20.20;12.35;;;;;;;17.09;100.00;101514.28;5089756;28;20032;-69
2023/08/24 05:01:34;;;;;;;23.63;13.55;;;;;;;17.09;100.00;101511.56;5089612;28;20051;-70
2023/08/24 05:04:00;;;;;;;22.55;12.65;;;;;;;17.09;100.00;101508.88;5090196;28;20048;-69
2023/08/24 05:06:25;;;;;;;25.92;15.02;;;;;;;17.07;100.00;101500.19;5090102;28;20034;-69
2023/08/24 05:08:51;;;;;;;20.83;13.52;;;;;;;17.06;100.00;101501.25;5090497;28;20776;-69
2023/08/24 05:11:22;;;;;;;25.08;15.27;;;;;;;17.04;100.00;101512.25;5090439;28;20714;-69
2023/08/24 05:13:48;;;;;;;20.63;13.18;;;;;;;17.02;100.00;101511.63;5089670;28;20054;-69
2023/08/24 05:16:13;;;;;;;24.25;14.27;;;;;;;16.98;100.00;101509.63;5089504;28;20031;-69
2023/08/24 05:18:39;;;;;;;23.55;13.30;;;;;;;16.93;100.00;101507.59;5089060;28;20032;-69
2023/08/24 05:21:05;;;;;;;22.40;13.95;;;;;;;16.92;100.00;101515.88;5090479;28;20036;-69
2023/08/24 05:23:31;;;;;;;22.75;15.32;;;;;;;16.92;100.00;101513.19;5090221;28;20044;-69
2023/08/24 05:25:58;;;;;;;20.80;14.57;;;;;;;16.99;100.00;101511.25;5090228;28;20040;-69
2023/08/24 05:28:27;;;;;;;25.38;14.43;;;;;;;17.00;100.00;101508.34;5089843;28;20028;-69
2023/08/24 05:30:53;;;;;;;25.08;15.25;;;;;;;17.12;100.00;101508.44;5077286;28;20044;-69
2023/08/24 05:33:22;;;;;;;25.27;16.08;;;;;;;17.20;100.00;101507.31;5070787;28;20037;-69
2023/08/24 05:35:49;;;;;;;22.23;14.98;;;;;;;17.30;100.00;101502.22;5070589;28;20036;-69
2023/08/24 05:38:15;;;;;;;23.48;16.02;;;;;;;17.40;100.00;101494.44;5070703;28;20135;-69
2023/08/24 05:40:42;;;;;;;24.98;15.25;;;;;;;17.44;100.00;101498.31;5070569;28;20036;-69
2023/08/24 05:43:08;;;;;;;24.45;15.93;;;;;;;17.47;100.00;101497.03;5070696;28;20032;-69
2023/08/24 05:45:33;;;;;;;22.08;15.25;;;;;;;17.53;100.00;101494.25;5070232;28;20037;-69
2023/08/24 05:47:59;;;;;;;26.08;16.08;;;;;;;17.59;100.00;101489.00;5070465;28;20028;-69
2023/08/24 05:50:24;;;;;;;23.27;15.85;;;;;;;17.64;100.00;101487.25;5071114;28;20384;-69
2023/08/24 05:52:50;;;;;;;25.77;15.02;;;;;;;17.72;100.00;101480.72;5070925;28;20123;-69
2023/08/24 05:55:15;;;;;;;22.20;14.35;;;;;;;17.74;100.00;101471.34;5070372;28;20029;-69
2023/08/24 05:57:41;;;;;;;22.58;16.38;;;;;;;17.82;100.00;101466.72;5070438;28;20060;-69
2023/08/24 06:00:09;;;;;;;23.08;14.93;;;;;;;17.87;100.00;101461.47;5070390;28;20024;-69
2023/08/24 06:02:35;;;;;;;22.85;15.57;;;;;;;17.93;100.00;101457.84;5088893;28;20067;-70
2023/08/24 06:05:01;;;;;;;22.58;16.05;;;;;;;17.96;100.00;101451.97;5089334;28;20923;-69
2023/08/24 06:07:26;;;;;;;23.70;16.48;;;;;;;17.96;100.00;101451.97;5089516;28;20038;-69
2023/08/24 06:09:52;;;;;;;29.05;17.65;;;;;;;18.01;100.00;101435.91;5089399;28;20111;-69
2023/08/24 06:12:17;;;;;;;29.60;17.65;;;;;;;18.06;100.00;101437.91;5074047;28;20024;-69
2023/08/24 06:14:42;;;;;;;28.15;19.05;;;;;;;18.08;100.00;101427.72;5069973;28;20028;-69
2023/08/24 06:17:08;;;;;;;23.67;17.65;;;;;;;18.15;100.00;101423.00;5068746;28;20040;-69
2023/08/24 06:19:33;;;;;;;27.70;17.65;;;;;;;18.15;100.00;101413.03;5069878;28;20036;-69
2023/08/24 06:21:58;;;;;;;26.98;18.48;;;;;;;18.21;100.00;101410.44;5070176;28;20047;-69
2023/08/24 06:24:24;;;;;;;24.70;19.73;;;;;;;18.22;100.00;101407.53;5069804;28;20407;-69
2023/08/24 06:26:49;;;;;;;25.70;18.15;;;;;;;18.28;100.00;101405.78;5070506;28;20040;-70
2023/08/24 06:29:14;;;;;;;25.52;19.50;;;;;;;18.30;100.00;101417.97;5088709;28;20032;-70
2023/08/24 06:31:40;;;;;;;24.48;17.05;;;;;;;18.36;100.00;101427.03;5089053;28;20036;-69
2023/08/24 06:34:05;;;;;;;25.83;18.95;;;;;;;18.41;100.00;101424.44;5089075;28;20067;-69
2023/08/24 06:36:30;;;;;;;26.85;19.13;;;;;;;18.43;100.00;101432.31;5088946;28;20503;-69
2023/08/24 06:38:56;;;;;;;25.40;18.48;;;;;;;18.46;100.00;101438.06;5088550;28;20119;-70
2023/08/24 06:41:21;;;;;;;26.25;18.63;;;;;;;18.52;100.00;101447.09;5087778;28;20020;-69
2023/08/24 06:43:46;;;;;;;25.90;18.42;;;;;;;18.57;100.00;101448.03;5088816;28;20491;-69
2023/08/24 06:46:12;;;;;;;24.70;17.27;;;;;;;18.64;100.00;101441.72;5089145;28;20428;-69
2023/08/24 06:48:38;;;;;;;25.27;18.25;;;;;;;18.71;100.00;101445.13;5088859;28;20043;-69
2023/08/24 06:51:03;;;;;;;29.42;18.23;;;;;;;18.77;100.00;101436.09;5088923;28;20038;-69
2023/08/24 06:53:29;;;;;;;24.42;17.98;;;;;;;18.82;100.00;101434.31;5088778;28;20070;-69
2023/08/24 06:55:56;;;;;;;22.92;17.17;;;;;;;18.89;100.00;101428.78;5087566;28;20032;-69
2023/08/24 06:58:21;;;;;;;26.88;18.83;;;;;;;18.97;100.00;101425.72;5088919;28;20035;-69
2023/08/24 07:00:47;;;;;;;23.45;18.08;;;;;;;19.01;100.00;101434.16;5088854;28;20032;-69
2023/08/24 07:03:12;;;;;;;24.52;18.00;;;;;;;19.06;100.00;101434.28;5088686;28;21189;-69
2023/08/24 07:05:38;;;;;;;24.02;17.85;;;;;;;19.12;100.00;101433.31;5088480;28;20775;-69
2023/08/24 07:08:04;;;;;;;23.77;18.77;;;;;;;19.16;100.00;101423.66;5085410;28;20490;-69
2023/08/24 07:10:29;;;;;;;23.60;17.92;;;;;;;19.23;100.00;101427.06;5069129;28;20056;-69
2023/08/24 07:12:55;;;;;;;27.33;17.83;;;;;;;19.31;100.00;101427.72;5068547;28;20035;-69
2023/08/24 07:15:20;;;;;;;25.95;18.25;;;;;;;19.39;100.00;101422.78;5067197;28;20032;-69
2023/08/24 07:17:45;;;;;;;23.30;17.20;;;;;;;19.46;100.00;101411.78;5068940;28;20104;-69
2023/08/24 07:20:14;;;;;;;23.48;17.48;;;;;;;19.55;100.00;101423.88;5068930;28;20056;-69
2023/08/24 07:22:39;;;;;;;27.70;18.85;;;;;;;19.56;100.00;101403.84;5069281;28;20032;-68
2023/08/24 07:25:05;;;;;;;25.25;18.17;;;;;;;19.67;100.00;101419.22;5069141;28;20031;-68
2023/08/24 07:27:34;;;;;;;26.05;18.10;;;;;;;19.76;100.00;101410.75;5068937;28;20047;-68
2023/08/24 07:30:01;;;;;;;24.35;17.23;;;;;;;19.84;100.00;101408.44;5088389;28;20383;-68
2023/08/24 07:32:27;;;;;;;24.50;16.90;;;;;;;19.87;100.00;101401.72;5088507;28;20047;-68
2023/08/24 07:34:52;;;;;;;23.05;16.10;;;;;;;19.98;100.00;101406.22;5088463;28;20028;-68
2023/08/24 07:37:18;;;;;;;24.13;17.13;;;;;;;20.06;100.00;101407.72;5088458;28;20031;-68
2023/08/24 07:39:43;;;;;;;21.23;15.60;;;;;;;20.13;100.00;101400.25;5088262;28;20032;-68
2023/08/24 07:42:09;;;;;;;23.67;16.95;;;;;;;20.22;100.00;101389.81;5088313;28;20151;-70
2023/08/24 07:44:34;;;;;;;22.15;15.85;;;;;;;20.40;100.00;101399.56;5088249;28;20109;-69
2023/08/24 07:46:59;;;;;;;22.58;14.43;;;;;;;20.42;100.00;101392.00;5070173;28;20039;-69
2023/08/24 07:49:25;;;;;;;21.15;14.65;;;;;;;20.64;100.00;101411.03;5069560;28;20056;-68
2023/08/24 07:51:50;;;;;;;21.05;13.77;;;;;;;20.78;100.00;101412.34;5072415;28;20044;-70
2023/08/24 07:54:15;;;;;;;21.88;14.80;;;;;;;20.93;100.00;101407.09;5071570;28;20031;-69
2023/08/24 07:56:41;;;;;;;22.38;15.48;;;;;;;21.05;100.00;101398.00;5072880;28;20047;-67
2023/08/24 07:59:06;;;;;;;21.48;13.98;;;;;;;21.15;100.00;101398.13;5071400;28;20040;-68
2023/08/24 08:01:32;;;;;;;19.25;14.63;;;;;;;21.25;100.00;101392.81;5072070;28;20039;-68
2023/08/24 08:03:58;;;;;;;24.10;15.48;;;;;;;21.34;100.00;101390.47;5071962;28;20074;-68
2023/08/24 08:06:24;;;;;;;21.15;14.80;;;;;;;21.44;100.00;101402.28;5071956;28;20040;-68
2023/08/24 08:08:51;;;;;;;23.27;13.75;;;;;;;21.70;100.00;101396.28;5091340;28;20376;-68
2023/08/24 08:11:17;;;;;;;20.70;14.55;;;;;;;21.99;100.00;101397.63;5091904;28;20059;-68
2023/08/24 08:13:42;;;;;;;21.77;14.90;;;;;;;22.35;100.00;101402.50;5091490;28;20098;-68
2023/08/24 08:16:07;;;;;;;22.42;15.77;;;;;;;22.78;99.88;101393.22;5091678;28;20020;-68
2023/08/24 08:18:34;;;;;;;21.10;13.98;;;;;;;23.17;100.00;101401.03;5091378;28;20031;-68
2023/08/24 08:21:00;;;;;;;19.83;13.50;;;;;;;23.57;96.21;101408.44;5091455;28;20486;-68
2023/08/24 08:23:26;;;;;;;21.35;14.05;;;;;;;23.88;92.58;101405.78;5091430;28;20031;-68
2023/08/24 08:25:51;;;;;;;21.92;14.02;;;;;;;24.14;91.54;101397.59;5093528;28;20047;-68
2023/08/24 08:28:18;;;;;;;23.02;13.25;;;;;;;24.42;90.47;101404.38;5091575;28;20047;-68
2023/08/24 08:30:44;;;;;;;21.75;13.75;;;;;;;24.64;89.62;101396.69;5091273;28;20028;-68
2023/08/24 08:33:09;;;;;;;21.35;13.13;;;;;;;24.98;86.18;101400.66;5091227;28;20035;-68
2023/08/24 08:35:35;;;;;;;19.63;13.35;;;;;;;25.25;85.90;101395.63;5091387;28;20031;-68
2023/08/24 08:38:00;;;;;;;22.73;14.63;;;;;;;25.26;83.09;101401.94;5091156;28;20472;-68
2023/08/24 08:40:30;;;;;;;18.92;12.18;;;;;;;25.11;83.59;101383.69;5091177;28;20086;-68
2023/08/24 08:42:58;;;;;;;20.48;13.13;;;;;;;25.11;84.17;101370.03;5091176;28;20862;-68
2023/08/24 08:45:26;;;;;;;22.38;13.43;;;;;;;24.98;84.39;101376.09;5091007;28;20683;-68
2023/08/24 08:47:53;;;;;;;19.00;13.38;;;;;;;24.65;86.69;101360.16;5090898;28;20024;-68
2023/08/24 08:50:20;;;;;;;19.50;12.63;;;;;;;24.44;88.93;101344.91;5090704;28;20486;-68
2023/08/24 08:52:45;;;;;;;19.40;12.00;;;;;;;24.22;88.35;101335.16;5090812;28;20042;-69
2023/08/24 08:55:11;;;;;;;18.70;11.90;;;;;;;24.12;90.92;101337.09;5089569;28;20456;-71
2023/08/24 08:57:37;;;;;;;18.88;13.30;;;;;;;23.95;91.44;101312.91;5079453;28;20101;-71
2023/08/24 09:00:03;;;;;;;20.48;13.25;;;;;;;23.87;94.08;101313.44;5070901;28;20028;-68
2023/08/24 09:02:30;;;;;;;21.55;13.48;;;;;;;23.77;92.95;101306.09;5073269;28;20559;-70
2023/08/24 09:04:56;;;;;;;21.15;13.25;;;;;;;23.75;94.29;101300.91;5071112;28;20049;-70
2023/08/24 09:07:23;;;;;;;23.75;14.32;;;;;;;23.78;95.66;101292.19;5071262;28;20044;-73
2023/08/24 09:09:50;;;;;;;25.13;15.70;;;;;;;23.78;95.09;101291.38;5071193;28;20043;-69
2023/08/24 09:12:15;;;;;;;22.75;15.48;;;;;;;23.81;97.55;101288.09;5081823;28;20029;-69
2023/08/24 09:14:41;;;;;;;21.48;14.43;;;;;;;23.85;97.37;101281.03;5070873;28;20028;-69
2023/08/24 09:17:06;;;;;;;21.42;15.32;;;;;;;23.89;95.77;101270.38;5070785;28;20040;-67
2023/08/24 09:19:35;;;;;;;21.60;13.85;;;;;;;23.90;96.55;101264.66;5068240;28;20028;-68
2023/08/24 09:22:01;;;;;;;22.15;14.88;;;;;;;23.93;98.39;101258.66;5071615;28;20106;-68
2023/08/24 09:24:32;;;;;;;21.27;14.65;;;;;;;23.86;96.76;101241.78;5071686;28;20071;-68
2023/08/24 09:26:57;;;;;;;21.48;15.45;;;;;;;23.81;98.27;101237.16;5072484;28;20028;-69
2023/08/24 09:29:23;;;;;;;20.25;14.80;;;;;;;23.80;97.85;101240.16;5071311;28;20059;-68
2023/08/24 09:31:50;;;;;;;22.50;15.70;;;;;;;23.81;97.31;101230.91;5073046;28;20066;-70
2023/08/24 09:34:20;;;;;;;20.45;14.40;;;;;;;23.86;96.33;101222.72;5072439;28;20035;-71
2023/08/24 09:36:45;;;;;;;22.17;15.02;;;;;;;23.91;96.05;101221.88;5074780;28;20039;-71
2023/08/24 09:39:11;;;;;;;20.23;14.95;;;;;;;23.93;96.04;101241.50;5089918;28;20037;-71
2023/08/24 09:41:40;;;;;;;21.50;15.15;;;;;;;23.98;96.01;101253.19;5090078;28;20049;-71
2023/08/24 09:44:06;;;;;;;18.67;13.50;;;;;;;24.00;96.82;101259.19;5089733;28;20040;-71
2023/08/24 09:46:32;;;;;;;22.17;14.50;;;;;;;24.06;95.43;101271.72;5089968;28;20032;-70
2023/08/24 09:49:00;;;;;;;19.00;13.73;;;;;;;24.09;95.76;101294.06;5090141;28;20061;-70
2023/08/24 09:51:26;;;;;;;25.13;14.90;;;;;;;24.17;95.38;101299.75;5090054;28;20024;-70
2023/08/24 09:53:54;;;;;;;17.55;12.80;;;;;;;24.18;96.08;101295.09;5089684;28;20032;-71
2023/08/24 09:56:21;;;;;;;19.10;13.63;;;;;;;24.25;95.59;101296.44;5089710;28;20515;-70
2023/08/24 09:58:48;;;;;;;21.85;14.07;;;;;;;24.36;95.11;101291.75;5078588;28;20474;-70
2023/08/24 10:01:16;;;;;;;21.05;12.65;;;;;;;24.37;93.86;101290.69;5068967;28;20036;-71
2023/08/24 10:03:44;;;;;;;18.85;12.25;;;;;;;24.41;94.22;101293.66;5087920;28;20103;-71
2023/08/24 10:06:11;;;;;;;18.23;13.38;;;;;;;24.43;95.58;101286.84;5081056;28;20379;-71
2023/08/24 10:08:39;;;;;;;19.30;11.75;;;;;;;24.41;95.93;101282.75;5069474;28;20032;-70
2023/08/24 10:11:06;;;;;;;16.85;10.50;;;;;;;24.37;94.40;101290.69;5088554;28;20491;-71
2023/08/24 10:13:41;;;;;;;15.95;11.00;;;;;;;24.42;96.31;101298.03;5088436;28;20070;-70
2023/08/24 10:16:07;;;;;;;17.75;11.38;;;;;;;24.41;94.56;101305.38;5070845;28;20029;-70
2023/08/24 10:18:33;;;;;;;16.35;11.25;;;;;;;24.42;95.52;101298.84;5069960;28;20036;-70
2023/08/24 10:21:00;;;;;;;16.75;10.48;;;;;;;24.37;95.97;101300.78;5089216;28;20027;-71
2023/08/24 10:23:28;;;;;;;19.55;11.25;;;;;;;24.38;96.72;101295.03;5089140;28;20123;-71
2023/08/24 10:25:55;;;;;;;14.90;10.20;;;;;;;24.38;95.72;101289.59;5088134;28;20039;-70
2023/08/24 10:28:23;;;;;;;17.80;11.43;;;;;;;24.37;97.79;101287.97;5069339;28;20069;-70
2023/08/24 10:30:49;;;;;;;17.05;11.32;;;;;;;24.33;98.35;101284.16;5069517;28;20043;-70
2023/08/24 10:33:16;;;;;;;19.35;12.60;;;;;;;24.29;100.00;101274.91;5069737;28;20037;-70
2023/08/24 10:35:43;;;;;;;18.00;11.88;;;;;;;24.26;98.79;101272.72;5070062;28;20557;-68
2023/08/24 10:38:22;;;;;;;17.23;10.10;;;;;;;24.23;98.03;101278.72;5068305;28;21384;-68
2023/08/24 10:40:47;;;;;;;20.00;11.18;;;;;;;24.18;100.00;101278.75;5070804;28;20039;-69
2023/08/24 10:43:13;;;;;;;16.52;10.63;;;;;;;24.15;100.00;101273.84;5069262;28;20036;-71
2023/08/24 10:45:56;;;;;;;18.67;10.93;;;;;;;24.10;100.00;101285.59;5068864;28;20024;-70
2023/08/24 10:48:23;;;;;;;18.63;12.55;;;;;;;24.00;100.00;101289.16;5068145;28;20031;-70
2023/08/24 10:51:13;;;;;;;17.98;10.35;;;;;;;23.97;100.00;101292.44;5069459;28;20344;-70
2023/08/24 10:53:45;;;;;;;16.10;9.75;;;;;;;23.93;99.64;101299.53;5069833;28;20107;-70
2023/08/24 10:56:15;;;;;;;12.18;8.32;;;;;;;23.95;100.00;101310.16;5069472;28;20020;-69
2023/08/24 10:58:41;;;;;;;18.63;9.27;;;;;;;23.98;100.00;101310.44;5069390;28;20028;-69
2023/08/24 11:01:06;;;;;;;14.50;9.20;;;;;;;23.98;99.84;101313.16;5069537;28;20036;-70
2023/08/24 11:03:35;;;;;;;16.25;8.25;;;;;;;23.98;100.00;101306.88;5069904;28;20044;-70